Latest Weather Observations for Liawenee

IDT60801

Issued at 9:05 am EDT Saturday 1 November 2014 (issued every 30 minutes, with the page automatically refreshed every 10 minutes)

About weather observations | Map of weather stations | Latest weather observations for TAS | Other Formats
Station Details ID: 096033 Name: LIAWENEE Lat: -41.90 Lon: 146.67 Height: 1057.0 m
Data from the previous 72 hours. | See also: Recent months at Liawenee
Date/Time
EDT
Temp
°C
App
Temp
°C
Dew
Point
Rel
Hum
%
Delta-T
°C
Wind Press
QNH
hPa
Press
MSL
hPa
Rain
since 9 am
mm
Dir
 
Spd
km/h
Gust
km/h
Spd
kts
Gust
kts
01/09:00am 6.1 -1.5 3.9 86 1.0 W 33 43 18 23 992.9 992.9 -
01/08:30am 6.0 -1.1 3.8 86 1.0 W 30 56 16 30 992.5 992.4 -
01/08:29am 5.9 -0.9 3.2 83 1.2 W 28 56 15 30 992.5 992.4 -
01/08:00am 5.4 -1.3 3.9 90 0.7 W 28 41 15 22 992.6 992.5 -
01/07:30am 5.5 -1.5 4.0 90 0.7 W 30 44 16 24 992.8 992.7 -
01/07:00am 6.3 -0.1 5.3 93 0.5 W 28 43 15 23 991.8 991.7 -
01/06:30am 6.3 -0.1 5.1 92 0.6 WNW 28 41 15 22 991.6 991.5 -
01/06:00am 6.2 0.9 4.8 91 0.7 WNW 22 35 12 19 991.6 991.5 -
01/05:30am 6.4 0.3 4.7 89 0.8 WNW 26 39 14 21 992.1 992.1 -
01/05:00am 6.6 1.8 5.7 94 0.4 W 20 28 11 15 992.1 992.1 -
01/04:30am 6.7 1.5 5.5 92 0.6 WNW 22 35 12 19 992.2 992.2 -
01/04:00am 6.5 0.2 5.5 93 0.5 W 28 39 15 21 992.7 992.6 -
01/03:30am 6.8 -1.6 5.4 91 0.7 W 39 59 21 32 993.2 993.2 -
01/03:00am 7.3 -0.3 5.6 89 0.8 W 35 61 19 33 994.2 994.2 -
01/02:51am 8.2 1.6 6.0 86 1.1 WNW 30 61 16 33 994.7 994.7 -
01/02:30am 9.6 4.5 5.8 77 1.9 WNW 22 32 12 17 993.6 993.5 -
01/02:00am 10.2 4.4 6.2 76 2.0 W 26 39 14 21 994.0 994.0 0.0
01/01:30am 11.0 6.4 6.6 74 2.2 WNW 20 33 11 18 994.2 994.2 0.0
01/01:00am 11.1 6.7 6.5 73 2.3 NW 19 35 10 19 995.0 995.0 0.0
01/12:30am 11.3 6.6 6.2 71 2.5 NW 20 30 11 16 995.7 995.7 0.0
01/12:00am 11.0 5.8 5.7 70 2.6 NNW 22 37 12 20 996.5 996.5 0.0
 
Date/Time
EDT
Temp
°C
App
Temp
°C
Dew
Point
Rel
Hum
%
Delta-T
°C
Wind Press
QNH
hPa
Press
MSL
hPa
Rain
since 9 am
mm
Dir
 
Spd
km/h
Gust
km/h
Spd
kts
Gust
kts
31/11:30pm 10.4 6.0 6.4 76 2.0 NNW 19 33 10 18 996.6 996.6 0.0
31/11:00pm 10.1 5.2 6.8 80 1.7 NW 22 35 12 19 997.7 997.7 0.0
31/10:30pm 9.9 4.6 6.6 80 1.7 N 24 41 13 22 997.3 997.4 0.0
31/10:00pm 10.2 5.3 6.7 79 1.8 NNW 22 39 12 21 998.1 998.2 0.0
31/09:30pm 10.5 5.9 6.3 75 2.1 NNW 20 35 11 19 998.5 998.5 0.0
31/09:08pm 10.8 4.6 6.2 73 2.3 NNW 28 48 15 26 998.6 998.6 0.0
31/09:00pm 10.9 5.4 6.1 72 2.4 NNW 24 44 13 24 998.8 998.9 0.0
31/08:30pm 10.9 5.0 5.9 71 2.5 NW 26 43 14 23 998.9 999.0 0.0
31/08:19pm 10.7 4.4 5.5 70 2.5 NW 28 46 15 25 999.0 999.1 0.0
31/08:00pm 10.7 4.3 5.3 69 2.6 NW 28 39 15 21 999.0 999.1 0.0
31/07:35pm 10.7 4.2 4.6 66 2.9 NW 28 46 15 25 999.2 999.3 0.0
31/07:30pm 10.8 3.8 4.0 63 3.2 NNW 30 44 16 24 999.2 999.3 0.0
31/07:00pm 11.6 4.8 3.1 56 4.0 NW 28 46 15 25 999.8 999.9 0.0
31/06:39pm 12.0 5.2 3.3 55 4.1 NNW 28 46 15 25 999.9 1000.0 0.0
31/06:30pm 12.3 6.2 3.0 53 4.4 NNW 24 43 13 23 999.9 1000.0 0.0
31/06:07pm 12.6 5.9 3.5 54 4.3 NNW 28 46 15 25 1000.1 1000.2 0.0
31/06:00pm 12.6 7.1 3.8 55 4.2 NNW 22 37 12 20 1000.2 1000.3 0.0
31/05:49pm 12.5 6.0 4.7 59 3.8 NW 28 48 15 26 1000.4 1000.6 0.0
31/05:30pm 12.4 6.0 5.3 62 3.5 NW 28 44 15 24 1000.7 1000.8 0.0
31/05:00pm 11.7 5.7 7.2 74 2.3 NNW 28 44 15 24 1001.1 1001.3 0.0
31/04:30pm 13.3 7.4 7.5 68 3.0 NW 28 54 15 29 1001.6 1001.7 0.0
31/04:00pm 14.2 8.0 7.7 65 3.4 NW 30 56 16 30 1002.0 1002.2 0.0
31/03:30pm 13.5 6.7 7.9 69 2.9 WNW 33 52 18 28 1002.6 1002.7 0.0
31/03:00pm 15.2 8.9 9.6 69 3.1 WNW 33 54 18 29 1002.7 1002.8 0.0
31/02:31pm 13.9 7.7 9.3 74 2.5 WNW 32 50 17 27 1003.1 1003.3 0.0
31/02:30pm 13.7 7.3 9.2 74 2.4 WNW 33 50 18 27 1003.1 1003.3 0.0
31/02:11pm 13.1 7.5 10.1 82 1.6 WNW 30 48 16 26 1003.6 1003.8 0.0
31/02:00pm 12.1 5.8 8.8 80 1.8 WNW 32 48 17 26 1003.8 1004.0 0.0
31/01:42pm 12.0 6.4 8.8 81 1.7 WNW 28 46 15 25 1003.9 1004.1 0.0
31/01:30pm 12.9 6.5 9.5 80 1.8 WNW 33 46 18 25 1003.6 1003.8 0.0
31/01:11pm 13.5 8.0 9.2 75 2.3 WNW 28 46 15 25 1003.9 1004.1 0.0
31/01:00pm 13.0 6.4 8.5 74 2.4 WNW 33 48 18 26 1004.2 1004.4 0.0
31/12:40pm 12.3 6.7 8.6 78 2.0 WNW 28 46 15 25 1004.3 1004.5 0.0
31/12:30pm 10.8 5.1 8.4 85 1.2 NW 28 43 15 23 1004.1 1004.3 0.0
31/12:09pm 10.0 4.1 7.3 83 1.4 WNW 28 46 15 25 1005.0 1005.2 0.0
31/12:00pm 9.5 5.1 7.4 87 1.1 NW 20 37 11 20 1005.0 1005.2 0.0
31/11:30am 8.5 4.0 6.8 89 0.8 NW 20 37 11 20 1004.8 1005.0 0.0
31/11:00am 9.3 3.6 6.9 85 1.2 NW 26 41 14 22 1004.9 1005.1 0.0
31/10:30am 10.2 4.3 7.3 82 1.5 WNW 28 41 15 22 1004.9 1005.1 0.0
31/10:08am 9.7 3.6 6.8 82 1.4 WNW 28 46 15 25 1005.1 1005.3 0.0
31/10:00am 9.3 2.7 6.2 81 1.5 WNW 30 44 16 24 1005.2 1005.5 0.0
31/09:30am 9.6 4.1 6.0 78 1.8 WNW 24 41 13 22 1005.1 1005.3 0.0
31/09:00am 8.9 3.2 4.9 76 1.9 NW 24 37 13 20 1005.3 1005.6 0.0
31/08:30am 7.1 1.2 3.7 79 1.5 NW 24 37 13 20 1005.4 1005.7 0.0
31/08:00am 6.4 2.1 3.4 81 1.4 NW 15 33 8 18 1005.4 1005.7 0.0
31/07:30am 5.0 1.8 2.9 86 0.9 NW 9 20 5 11 1005.7 1005.9 0.0
31/07:00am 4.4 1.2 2.8 89 0.7 NNW 9 17 5 9 1006.2 1006.5 0.0
31/06:30am 3.6 0.6 2.3 91 0.6 NW 7 22 4 12 1006.0 1006.3 0.0
31/06:00am 1.9 -1.3 1.0 94 0.4 NE 7 11 4 6 1006.0 1006.3 0.0
31/05:30am 2.8 -0.2 1.0 88 0.7 N 6 9 3 5 1005.9 1006.1 0.0
31/05:00am 3.4 0.4 1.8 89 0.7 WNW 7 15 4 8 1006.1 1006.4 0.0
31/04:30am 2.5 0.4 1.5 93 0.4 SW 2 7 1 4 1006.2 1006.5 0.0
31/04:00am 3.4 0.0 2.1 91 0.6 W 9 15 5 8 1006.5 1006.8 0.0
31/03:30am 4.0 1.3 2.4 89 0.7 NNW 6 13 3 7 1007.1 1007.4 0.0
31/03:00am 4.5 -0.8 2.8 89 0.7 W 20 28 11 15 1007.2 1007.5 0.0
31/02:30am 4.7 0.0 3.2 90 0.7 W 17 24 9 13 1007.5 1007.8 0.0
31/02:00am 4.7 0.8 3.2 90 0.7 W 13 19 7 10 1007.8 1008.1 0.0
31/01:30am 5.2 0.2 3.7 90 0.7 W 19 24 10 13 1008.3 1008.6 0.0
31/01:00am 4.9 -0.7 3.2 89 0.8 W 22 30 12 16 1008.4 1008.8 0.0
31/12:30am 5.1 1.2 3.4 89 0.8 WNW 13 22 7 12 1008.9 1009.2 0.0
31/12:00am 5.4 0.8 3.6 88 0.8 WNW 17 24 9 13 1009.2 1009.5 0.0
 
Date/Time
EDT
Temp
°C
App
Temp
°C
Dew
Point
Rel
Hum
%
Delta-T
°C
Wind Press
QNH
hPa
Press
MSL
hPa
Rain
since 9 am
mm
Dir
 
Spd
km/h
Gust
km/h
Spd
kts
Gust
kts
30/11:30pm 5.5 2.0 3.5 87 0.9 W 11 15 6 8 1009.3 1009.7 0.0
30/11:00pm 5.9 1.7 3.9 87 0.9 WNW 15 22 8 12 1009.6 1010.0 0.0
30/10:30pm 6.1 3.1 3.9 86 1.0 NW 9 15 5 8 1009.8 1010.1 0.0
30/10:00pm 5.9 2.5 3.9 87 0.9 WNW 11 13 6 7 1009.9 1010.2 0.0
30/09:30pm 5.9 3.3 4.1 88 0.8 NW 7 11 4 6 1009.5 1009.9 0.0
30/09:00pm 5.7 1.5 3.7 87 0.9 W 15 20 8 11 1009.5 1009.9 0.0
30/08:30pm 6.0 1.8 3.8 86 1.0 W 15 20 8 11 1009.2 1009.5 0.0
30/08:00pm 6.7 2.3 4.5 86 1.0 W 17 26 9 14 1009.1 1009.4 0.0
30/07:30pm 7.0 2.0 4.7 85 1.1 W 20 30 11 16 1009.0 1009.3 0.0
30/07:00pm 7.7 2.8 4.3 79 1.6 WSW 19 26 10 14 1008.8 1009.1 0.0
30/06:30pm 8.2 2.3 4.0 75 1.9 W 24 39 13 21 1008.5 1008.9 0.0
30/06:00pm 8.3 3.6 6.1 86 1.1 W 20 28 11 15 1008.6 1009.0 0.0
30/05:30pm 8.6 4.2 6.6 87 1.0 W 19 26 10 14 1008.4 1008.8 0.0
30/05:00pm 8.8 3.1 4.8 76 1.9 W 24 33 13 18 1008.1 1008.4 0.0
30/04:30pm 8.9 2.5 5.1 77 1.8 WSW 28 39 15 21 1008.1 1008.4 0.0
30/04:00pm 9.0 1.9 5.7 80 1.6 WSW 32 43 17 23 1008.2 1008.5 0.0
30/03:30pm 11.0 3.9 5.7 70 2.6 W 32 43 17 23 1007.9 1008.2 0.0
30/03:00pm 10.2 4.4 6.4 77 1.9 W 26 37 14 20 1007.9 1008.2 0.0
30/02:30pm 9.5 3.5 7.1 85 1.2 W 28 43 15 23 1008.1 1008.4 0.0
30/02:00pm 10.9 4.1 5.2 68 2.8 W 30 41 16 22 1008.0 1008.3 0.0
30/01:30pm 9.4 3.7 5.0 74 2.1 WNW 24 35 13 19 1007.9 1008.2 0.0
30/01:00pm 10.4 4.4 5.2 70 2.5 W 26 37 14 20 1008.1 1008.4 0.0
30/12:30pm 9.5 2.7 4.9 73 2.2 W 30 43 16 23 1008.3 1008.6 0.0
30/12:00pm 10.1 3.5 4.3 67 2.8 W 28 39 15 21 1008.2 1008.5 0.0
30/11:30am 10.2 3.7 4.6 68 2.7 W 28 44 15 24 1008.4 1008.8 0.0
30/11:00am 9.0 3.2 4.6 74 2.1 W 24 33 13 18 1008.5 1008.9 0.0
30/10:30am 8.3 0.9 4.1 75 2.0 W 32 43 17 23 1008.5 1008.9 0.0
30/10:00am 8.1 1.5 4.3 77 1.8 W 28 41 15 22 1008.4 1008.8 0.0
30/09:30am 8.1 1.6 4.9 80 1.5 W 28 39 15 21 1008.2 1008.5 0.0
30/09:00am 8.1 1.3 4.9 80 1.5 W 30 44 16 24 1008.1 1008.4 0.0
30/08:30am 6.7 0.5 4.2 84 1.1 W 26 37 14 20 1008.0 1008.3 0.0
30/08:00am 6.8 1.0 4.5 85 1.1 W 24 37 13 20 1007.9 1008.2 0.0
30/07:30am 6.4 0.6 4.2 86 1.0 W 24 35 13 19 1007.9 1008.2 0.0
30/07:00am 5.7 0.8 4.2 90 0.7 W 19 26 10 14 1007.7 1008.0 0.0
30/06:30am 4.3 -0.3 3.6 95 0.3 W 17 22 9 12 1007.4 1007.7 0.0
30/06:00am 4.1 -0.9 3.5 96 0.3 W 19 26 10 14 1007.2 1007.5 0.0
30/05:30am 3.0 -1.5 2.3 95 0.3 W 15 17 8 9 1007.0 1007.3 0.0
30/05:00am 3.2 -1.3 2.0 92 0.5 W 15 17 8 9 1007.0 1007.3 0.0
30/04:30am 3.3 -1.6 2.1 92 0.5 W 17 22 9 12 1007.0 1007.3 0.0
30/04:00am 3.5 -1.9 2.2 91 0.6 W 20 28 11 15 1007.4 1007.7 0.0
30/03:30am 3.6 -1.6 2.3 91 0.6 W 19 24 10 13 1007.5 1007.8 0.0
30/03:00am 4.1 -1.1 2.5 89 0.7 WNW 19 28 10 15 1007.7 1008.0 0.0
30/02:30am 4.1 -1.6 2.8 91 0.6 W 22 32 12 17 1007.5 1007.8 0.0
30/02:00am 4.4 -1.7 2.8 89 0.7 W 24 35 13 19 1007.5 1007.8 0.0
30/01:30am 4.3 -1.4 2.7 89 0.7 W 22 32 12 17 1007.8 1008.1 0.0
30/01:00am 4.3 -2.3 2.3 87 0.9 W 26 39 14 21 1008.0 1008.3 0.0
30/12:30am 4.6 -2.3 2.8 88 0.8 W 28 35 15 19 1008.1 1008.4 0.0
30/12:00am 5.1 -1.7 3.1 87 0.9 W 28 37 15 20 1008.0 1008.3 0.0
 
Date/Time
EDT
Temp
°C
App
Temp
°C
Dew
Point
Rel
Hum
%
Delta-T
°C
Wind Press
QNH
hPa
Press
MSL
hPa
Rain
since 9 am
mm
Dir
 
Spd
km/h
Gust
km/h
Spd
kts
Gust
kts
29/11:30pm 5.0 -2.2 3.0 87 0.9 W 30 44 16 24 1008.2 1008.5 0.0
29/11:01pm 4.9 -2.0 2.8 86 0.9 W 28 46 15 25 1008.5 1008.9 0.0
29/11:00pm 5.0 -2.2 2.9 86 0.9 W 30 46 16 25 1008.5 1008.9 0.0
29/10:30pm 5.7 -1.8 3.5 86 1.0 W 32 43 17 23 1008.8 1009.1 0.0
29/10:00pm 5.4 -1.4 3.3 86 0.9 W 28 39 15 21 1008.8 1009.1 0.0
29/09:30pm 5.3 -1.6 2.8 84 1.1 W 28 37 15 20 1008.9 1009.2 0.0
29/09:00pm 5.9 -1.7 2.9 81 1.3 W 32 48 17 26 1009.0 1009.3 0.0
29/08:30pm 6.1 -0.6 3.8 85 1.0 W 28 39 15 21 1008.9 1009.2 0.0
29/08:00pm 6.1 -1.0 3.8 85 1.0 W 30 41 16 22 1008.9 1009.2 0.0
29/07:30pm 6.7 0.1 4.0 83 1.2 W 28 44 15 24 1008.6 1009.0 0.0
29/07:01pm 7.4 -0.9 4.0 79 1.6 W 37 56 20 30 1008.6 1009.0 0.0
29/07:00pm 7.4 -1.3 4.0 79 1.6 W 39 56 21 30 1008.6 1009.0 0.0
29/06:36pm 7.9 -1.2 3.9 76 1.8 W 41 59 22 32 1008.5 1008.9 0.0
29/06:30pm 8.3 -0.4 3.9 74 2.0 W 39 54 21 29 1008.5 1008.9 0.0
29/06:04pm 8.4 -0.3 4.2 75 2.0 W 39 57 21 31 1008.5 1008.9 0.0
29/06:00pm 8.7 0.1 4.9 77 1.8 W 39 54 21 29 1008.6 1009.0 0.0
29/05:38pm 9.0 0.8 4.6 74 2.1 W 37 56 20 30 1009.1 1009.4 0.0
29/05:30pm 9.0 -0.1 4.0 71 2.3 W 41 56 22 30 1009.0 1009.3 0.0
29/05:00pm 9.6 0.9 4.2 69 2.5 W 39 59 21 32 1009.0 1009.3 0.0
29/04:30pm 9.8 0.8 4.4 69 2.6 W 41 63 22 34 1009.1 1009.4 0.0
29/04:00pm 10.7 1.7 4.8 67 2.8 W 41 59 22 32 1009.0 1009.3 0.0
29/03:30pm 10.4 1.7 4.3 66 2.9 W 39 59 21 32 1009.4 1009.8 0.0
29/03:07pm 10.4 1.7 3.9 64 3.1 W 39 57 21 31 1009.5 1009.9 0.0
29/03:00pm 9.8 0.8 4.4 69 2.6 W 41 54 22 29 1009.6 1010.0 0.0
29/02:30pm 10.3 1.4 5.3 71 2.4 W 41 54 22 29 1009.6 1010.0 0.0
29/02:19pm 10.1 1.0 4.0 66 2.9 W 41 59 22 32 1009.8 1010.1 0.0
29/02:00pm 9.6 1.3 4.2 69 2.5 W 37 50 20 27 1010.1 1010.5 0.0
29/01:32pm 10.7 3.3 5.0 68 2.8 W 33 52 18 28 1009.8 1010.1 0.0
29/01:30pm 9.8 2.0 4.8 71 2.4 W 35 52 19 28 1009.9 1010.2 0.0
29/01:00pm 9.5 1.7 4.7 72 2.3 W 35 61 19 33 1010.0 1010.3 0.0
29/12:35pm 9.0 1.0 3.8 70 2.4 W 35 54 19 29 1009.9 1010.2 0.0
29/12:30pm 8.9 1.0 4.5 74 2.1 W 35 52 19 28 1009.9 1010.2 0.0
29/12:09pm 7.8 -1.5 3.1 72 2.1 W 41 63 22 34 1010.1 1010.5 0.0
29/12:00pm 7.9 -1.2 3.9 76 1.8 W 41 57 22 31 1010.2 1010.6 0.0
29/11:51am 7.3 -0.4 3.4 76 1.8 W 33 54 18 29 1010.3 1010.7 0.0
29/11:30am 7.2 -0.8 3.8 79 1.6 W 35 50 19 27 1010.3 1010.7 0.0
29/11:01am 6.8 -0.7 3.4 79 1.5 W 32 52 17 28 1010.4 1010.8 0.0
29/11:00am 7.0 -0.4 4.0 81 1.4 W 32 41 17 22 1010.4 1010.8 0.0
29/10:39am 6.5 -0.6 3.7 82 1.3 W 30 48 16 26 1010.3 1010.7 0.0
29/10:30am 5.6 -1.6 2.9 83 1.2 W 30 43 16 23 1010.2 1010.6 0.0
29/10:22am 5.4 -1.4 2.9 84 1.1 W 28 46 15 25 1010.3 1010.7 0.0
29/10:00am 4.9 -1.9 2.9 87 0.9 W 28 43 15 23 1010.3 1010.7 0.0
29/09:30am 4.0 -2.2 2.2 88 0.8 W 24 33 13 18 1010.3 1010.7 0.0

Other Formats:

Comma delimited format used in spreadsheet applications
http://www.bom.gov.au/fwo/IDT60801/IDT60801.95959.axf

JavaScript Object Notation format (JSON) in row-major order
http://www.bom.gov.au/fwo/IDT60801/IDT60801.95959.json